sensor_id;sensor_type;location;lat;lon;timestamp;pressure;altitude;pressure_sealevel;temperature;humidity
15884;BME280;8040;50.254;10.960;2023-05-23T00:00:58;97820.91;;;20.25;60.23
15884;BME280;8040;50.254;10.960;2023-05-23T00:03:24;97819.75;;;20.26;60.24
15884;BME280;8040;50.254;10.960;2023-05-23T00:05:50;97817.78;;;20.26;60.16
15884;BME280;8040;50.254;10.960;2023-05-23T00:08:15;97813.44;;;20.25;60.13
15884;BME280;8040;50.254;10.960;2023-05-23T00:10:41;97807.47;;;20.20;59.84
15884;BME280;8040;50.254;10.960;2023-05-23T00:13:06;97814.91;;;20.19;59.91
15884;BME280;8040;50.254;10.960;2023-05-23T00:15:42;97813.78;;;20.20;60.05
15884;BME280;8040;50.254;10.960;2023-05-23T00:18:08;97809.84;;;20.21;60.09
15884;BME280;8040;50.254;10.960;2023-05-23T00:20:39;97802.81;;;20.24;60.25
15884;BME280;8040;50.254;10.960;2023-05-23T00:23:09;97805.16;;;20.25;60.15
15884;BME280;8040;50.254;10.960;2023-05-23T00:25:35;97812.28;;;20.26;60.45
15884;BME280;8040;50.254;10.960;2023-05-23T00:28:01;97809.53;;;20.26;60.38
15884;BME280;8040;50.254;10.960;2023-05-23T00:30:30;97814.22;;;20.26;60.78
15884;BME280;8040;50.254;10.960;2023-05-23T00:32:56;97825.25;;;20.26;60.99
15884;BME280;8040;50.254;10.960;2023-05-23T00:35:21;97815.41;;;20.25;61.13
15884;BME280;8040;50.254;10.960;2023-05-23T00:37:49;97815.00;;;20.23;61.19
15884;BME280;8040;50.254;10.960;2023-05-23T00:40:18;97811.78;;;20.21;61.22
15884;BME280;8040;50.254;10.960;2023-05-23T00:42:44;97821.22;;;20.20;61.70
15884;BME280;8040;50.254;10.960;2023-05-23T00:45:10;97818.06;;;20.18;61.67
15884;BME280;8040;50.254;10.960;2023-05-23T00:47:37;97814.09;;;20.15;61.72
15884;BME280;8040;50.254;10.960;2023-05-23T00:50:02;97822.72;;;20.14;61.73
15884;BME280;8040;50.254;10.960;2023-05-23T00:52:28;97827.00;;;20.11;61.73
15884;BME280;8040;50.254;10.960;2023-05-23T00:54:53;97824.56;;;20.06;61.58
15884;BME280;8040;50.254;10.960;2023-05-23T00:57:19;97826.47;;;20.02;61.82
15884;BME280;8040;50.254;10.960;2023-05-23T01:02:29;97812.91;;;19.90;61.70
15884;BME280;8040;50.254;10.960;2023-05-23T01:04:56;97833.44;;;19.96;61.80
15884;BME280;8040;50.254;10.960;2023-05-23T01:07:21;97826.34;;;19.95;61.43
15884;BME280;8040;50.254;10.960;2023-05-23T01:09:47;97830.25;;;19.94;61.75
15884;BME280;8040;50.254;10.960;2023-05-23T01:15:16;97831.00;;;19.91;61.65
15884;BME280;8040;50.254;10.960;2023-05-23T01:20:15;97823.47;;;19.88;61.80
15884;BME280;8040;50.254;10.960;2023-05-23T01:23:04;97826.97;;;19.85;61.68
15884;BME280;8040;50.254;10.960;2023-05-23T01:28:02;97833.22;;;19.82;62.16
15884;BME280;8040;50.254;10.960;2023-05-23T01:30:29;97828.50;;;19.83;62.11
15884;BME280;8040;50.254;10.960;2023-05-23T01:32:56;97832.06;;;19.83;62.40
15884;BME280;8040;50.254;10.960;2023-05-23T01:35:23;97836.34;;;19.81;62.71
15884;BME280;8040;50.254;10.960;2023-05-23T01:37:51;97834.38;;;19.81;62.84
15884;BME280;8040;50.254;10.960;2023-05-23T01:40:23;97843.38;;;19.78;62.99
15884;BME280;8040;50.254;10.960;2023-05-23T01:42:49;97845.69;;;19.76;63.19
15884;BME280;8040;50.254;10.960;2023-05-23T01:45:15;97849.56;;;19.72;63.53
15884;BME280;8040;50.254;10.960;2023-05-23T01:47:41;97858.91;;;19.67;63.55
15884;BME280;8040;50.254;10.960;2023-05-23T01:50:07;97865.53;;;19.63;63.70
15884;BME280;8040;50.254;10.960;2023-05-23T01:52:33;97858.81;;;19.60;63.48
15884;BME280;8040;50.254;10.960;2023-05-23T01:54:59;97857.94;;;19.56;63.40
15884;BME280;8040;50.254;10.960;2023-05-23T01:57:25;97854.78;;;19.54;63.44
15884;BME280;8040;50.254;10.960;2023-05-23T01:59:53;97855.13;;;19.53;63.60
15884;BME280;8040;50.254;10.960;2023-05-23T02:02:24;97859.41;;;19.50;63.70
15884;BME280;8040;50.254;10.960;2023-05-23T02:04:49;97865.25;;;19.49;63.95
15884;BME280;8040;50.254;10.960;2023-05-23T02:07:15;97858.56;;;19.46;64.00
15884;BME280;8040;50.254;10.960;2023-05-23T02:09:40;97855.38;;;19.44;64.06
15884;BME280;8040;50.254;10.960;2023-05-23T02:12:06;97868.28;;;19.40;64.34
15884;BME280;8040;50.254;10.960;2023-05-23T02:14:31;97870.22;;;19.40;64.43
15884;BME280;8040;50.254;10.960;2023-05-23T02:16:57;97868.59;;;19.35;64.76
15884;BME280;8040;50.254;10.960;2023-05-23T02:19:22;97859.47;;;19.31;65.33
15884;BME280;8040;50.254;10.960;2023-05-23T02:21:47;97864.53;;;19.29;65.38
15884;BME280;8040;50.254;10.960;2023-05-23T02:24:19;97860.03;;;19.21;65.94
15884;BME280;8040;50.254;10.960;2023-05-23T02:26:44;97865.44;;;19.18;66.19
15884;BME280;8040;50.254;10.960;2023-05-23T02:29:10;97866.63;;;19.17;66.29
15884;BME280;8040;50.254;10.960;2023-05-23T02:31:35;97868.88;;;19.11;66.73
15884;BME280;8040;50.254;10.960;2023-05-23T02:34:00;97873.56;;;19.11;66.97
15884;BME280;8040;50.254;10.960;2023-05-23T02:36:26;97870.75;;;19.07;67.09
15884;BME280;8040;50.254;10.960;2023-05-23T02:38:51;97873.44;;;19.04;67.53
15884;BME280;8040;50.254;10.960;2023-05-23T02:41:16;97876.53;;;19.02;67.88
15884;BME280;8040;50.254;10.960;2023-05-23T02:43:43;97876.53;;;19.02;67.83
15884;BME280;8040;50.254;10.960;2023-05-23T02:46:14;97876.53;;;19.02;68.04
15884;BME280;8040;50.254;10.960;2023-05-23T02:48:39;97880.88;;;19.03;68.08
15884;BME280;8040;50.254;10.960;2023-05-23T02:51:05;97878.13;;;19.03;68.37
15884;BME280;8040;50.254;10.960;2023-05-23T02:53:30;97876.53;;;19.02;68.35
15884;BME280;8040;50.254;10.960;2023-05-23T02:55:55;97875.38;;;19.03;68.36
15884;BME280;8040;50.254;10.960;2023-05-23T02:58:21;97872.19;;;19.01;68.56
15884;BME280;8040;50.254;10.960;2023-05-23T03:00:46;97885.16;;;19.01;68.56
15884;BME280;8040;50.254;10.960;2023-05-23T03:03:11;97874.88;;;18.98;68.74
15884;BME280;8040;50.254;10.960;2023-05-23T03:05:37;97882.31;;;18.97;68.80
15884;BME280;8040;50.254;10.960;2023-05-23T03:11:25;97885.06;;;18.97;69.26
15884;BME280;8040;50.254;10.960;2023-05-23T03:13:51;97877.91;;;18.93;69.45
15884;BME280;8040;50.254;10.960;2023-05-23T03:16:16;97877.50;;;18.91;69.58
15884;BME280;8040;50.254;10.960;2023-05-23T03:18:41;97880.59;;;18.89;69.68
15884;BME280;8040;50.254;10.960;2023-05-23T03:21:06;97879.81;;;18.89;69.88
15884;BME280;8040;50.254;10.960;2023-05-23T03:23:33;97891.59;;;18.89;69.78
15884;BME280;8040;50.254;10.960;2023-05-23T03:26:00;97892.75;;;18.88;70.09
15884;BME280;8040;50.254;10.960;2023-05-23T03:28:27;97891.09;;;18.84;70.22
15884;BME280;8040;50.254;10.960;2023-05-23T03:30:52;97892.63;;;18.81;70.50
15884;BME280;8040;50.254;10.960;2023-05-23T03:33:18;97890.28;;;18.83;70.40
15884;BME280;8040;50.254;10.960;2023-05-23T03:35:43;97891.72;;;18.77;70.85
15884;BME280;8040;50.254;10.960;2023-05-23T03:38:08;97890.22;;;18.80;70.84
15884;BME280;8040;50.254;10.960;2023-05-23T03:40:34;97892.91;;;18.76;71.01
15884;BME280;8040;50.254;10.960;2023-05-23T03:43:03;97900.44;;;18.79;71.06
15884;BME280;8040;50.254;10.960;2023-05-23T03:45:29;97905.94;;;18.79;70.93
15884;BME280;8040;50.254;10.960;2023-05-23T03:47:54;97909.97;;;18.85;70.94
15884;BME280;8040;50.254;10.960;2023-05-23T03:50:20;97913.94;;;18.88;70.69
15884;BME280;8040;50.254;10.960;2023-05-23T03:52:45;97916.25;;;18.86;70.75
15884;BME280;8040;50.254;10.960;2023-05-23T03:55:14;97912.72;;;18.85;70.87
15884;BME280;8040;50.254;10.960;2023-05-23T03:57:39;97920.97;;;18.85;70.83
15884;BME280;8040;50.254;10.960;2023-05-23T04:00:04;97919.34;;;18.84;71.01
15884;BME280;8040;50.254;10.960;2023-05-23T04:02:36;97923.28;;;18.83;70.98
15884;BME280;8040;50.254;10.960;2023-05-23T04:05:05;97922.09;;;18.84;70.91
15884;BME280;8040;50.254;10.960;2023-05-23T04:07:31;97919.34;;;18.84;70.81
15884;BME280;8040;50.254;10.960;2023-05-23T04:09:58;97920.09;;;18.81;71.07
15884;BME280;8040;50.254;10.960;2023-05-23T04:12:24;97916.91;;;18.79;71.26
15884;BME280;8040;50.254;10.960;2023-05-23T04:14:49;97915.75;;;18.80;71.23
15884;BME280;8040;50.254;10.960;2023-05-23T04:19:58;97925.31;;;18.86;70.47
15884;BME280;8040;50.254;10.960;2023-05-23T04:22:24;97933.63;;;18.90;70.62
15884;BME280;8040;50.254;10.960;2023-05-23T04:24:49;97938.75;;;18.91;70.37
15884;BME280;8040;50.254;10.960;2023-05-23T04:27:14;97930.50;;;18.91;70.40
15884;BME280;8040;50.254;10.960;2023-05-23T04:29:40;97941.22;;;18.96;70.35
15884;BME280;8040;50.254;10.960;2023-05-23T04:32:06;97941.59;;;18.95;70.14
15884;BME280;8040;50.254;10.960;2023-05-23T04:34:32;97938.84;;;18.95;70.07
15884;BME280;8040;50.254;10.960;2023-05-23T04:37:02;97942.38;;;18.95;69.93
15884;BME280;8040;50.254;10.960;2023-05-23T04:42:54;97957.44;;;19.01;69.59
15884;BME280;8040;50.254;10.960;2023-05-23T04:45:20;97950.75;;;19.02;69.51
15884;BME280;8040;50.254;10.960;2023-05-23T04:47:46;97950.13;;;19.09;69.06
15884;BME280;8040;50.254;10.960;2023-05-23T04:50:11;97953.03;;;19.16;68.22
15884;BME280;8040;50.254;10.960;2023-05-23T04:52:39;97957.16;;;19.25;67.09
15884;BME280;8040;50.254;10.960;2023-05-23T04:55:04;97960.34;;;19.27;67.36
15884;BME280;8040;50.254;10.960;2023-05-23T04:57:30;97960.19;;;19.39;66.88
15884;BME280;8040;50.254;10.960;2023-05-23T04:59:56;97952.88;;;19.47;66.94
15884;BME280;8040;50.254;10.960;2023-05-23T05:02:21;97956.28;;;19.59;66.53
15884;BME280;8040;50.254;10.960;2023-05-23T05:04:56;97961.91;;;19.66;66.11
15884;BME280;8040;50.254;10.960;2023-05-23T05:07:21;97958.81;;;19.68;65.73
15884;BME280;8040;50.254;10.960;2023-05-23T05:09:46;97956.69;;;19.61;65.46
15884;BME280;8040;50.254;10.960;2023-05-23T05:12:12;97969.44;;;19.50;65.51
15884;BME280;8040;50.254;10.960;2023-05-23T05:14:37;97972.63;;;19.52;66.13
15884;BME280;8040;50.254;10.960;2023-05-23T05:17:02;97975.66;;;19.66;65.90
15884;BME280;8040;50.254;10.960;2023-05-23T05:19:28;97974.22;;;19.72;65.02
15884;BME280;8040;50.254;10.960;2023-05-23T05:21:53;97976.78;;;19.84;64.81
15884;BME280;8040;50.254;10.960;2023-05-23T05:24:18;97968.84;;;20.02;64.95
15884;BME280;8040;50.254;10.960;2023-05-23T05:26:48;97975.94;;;20.25;63.97
15884;BME280;8040;50.254;10.960;2023-05-23T05:29:13;97977.84;;;20.44;62.51
15884;BME280;8040;50.254;10.960;2023-05-23T05:31:39;97970.59;;;20.58;61.93
15884;BME280;8040;50.254;10.960;2023-05-23T05:34:04;97978.09;;;20.61;61.99
15884;BME280;8040;50.254;10.960;2023-05-23T05:36:30;97986.84;;;20.67;61.82
15884;BME280;8040;50.254;10.960;2023-05-23T05:38:56;97987.47;;;20.57;61.77
15884;BME280;8040;50.254;10.960;2023-05-23T05:41:21;97988.91;;;20.47;61.64
15884;BME280;8040;50.254;10.960;2023-05-23T05:43:47;97993.38;;;20.33;61.55
15884;BME280;8040;50.254;10.960;2023-05-23T05:46:12;97987.72;;;20.22;61.64
15884;BME280;8040;50.254;10.960;2023-05-23T05:48:39;97987.53;;;20.12;62.57
15884;BME280;8040;50.254;10.960;2023-05-23T05:51:04;97984.56;;;20.01;62.61
15884;BME280;8040;50.254;10.960;2023-05-23T05:53:29;97985.59;;;19.93;62.58
15884;BME280;8040;50.254;10.960;2023-05-23T05:55:55;97985.34;;;19.79;62.14
15884;BME280;8040;50.254;10.960;2023-05-23T05:58:20;97996.53;;;19.67;61.95
15884;BME280;8040;50.254;10.960;2023-05-23T06:00:46;97990.00;;;19.56;62.18
15884;BME280;8040;50.254;10.960;2023-05-23T06:03:13;97994.00;;;19.59;62.19
15884;BME280;8040;50.254;10.960;2023-05-23T06:05:38;97995.59;;;19.60;62.14
15884;BME280;8040;50.254;10.960;2023-05-23T06:08:03;97996.81;;;19.62;62.29
15884;BME280;8040;50.254;10.960;2023-05-23T06:10:32;97995.88;;;19.74;62.03
15884;BME280;8040;50.254;10.960;2023-05-23T06:12:57;98001.28;;;19.89;61.56
15884;BME280;8040;50.254;10.960;2023-05-23T06:15:23;98006.97;;;20.00;60.82
15884;BME280;8040;50.254;10.960;2023-05-23T06:17:49;98002.69;;;20.02;60.69
15884;BME280;8040;50.254;10.960;2023-05-23T06:20:15;98002.13;;;19.93;60.85
15884;BME280;8040;50.254;10.960;2023-05-23T06:22:40;98008.78;;;19.92;61.28
15884;BME280;8040;50.254;10.960;2023-05-23T06:25:06;98001.19;;;19.86;61.80
15884;BME280;8040;50.254;10.960;2023-05-23T06:27:31;98005.03;;;19.81;61.92
15884;BME280;8040;50.254;10.960;2023-05-23T06:29:56;98002.97;;;19.75;62.40
15884;BME280;8040;50.254;10.960;2023-05-23T06:32:23;98005.31;;;19.76;62.25
15884;BME280;8040;50.254;10.960;2023-05-23T06:34:49;98002.91;;;19.71;62.11
15884;BME280;8040;50.254;10.960;2023-05-23T06:37:14;98007.94;;;19.69;61.79
15884;BME280;8040;50.254;10.960;2023-05-23T06:39:39;97988.06;;;19.57;61.11
15884;BME280;8040;50.254;10.960;2023-05-23T06:42:05;98010.41;;;19.74;60.68
15884;BME280;8040;50.254;10.960;2023-05-23T06:44:30;98015.63;;;19.79;59.90
15884;BME280;8040;50.254;10.960;2023-05-23T06:46:56;98011.00;;;19.83;58.98
15884;BME280;8040;50.254;10.960;2023-05-23T06:49:23;98016.75;;;19.97;58.98
15884;BME280;8040;50.254;10.960;2023-05-23T06:51:48;98014.06;;;20.01;57.81
15884;BME280;8040;50.254;10.960;2023-05-23T06:57:36;98021.75;;;19.92;56.50
15884;BME280;8040;50.254;10.960;2023-05-23T07:00:01;98023.47;;;20.00;56.77
15884;BME280;8040;50.254;10.960;2023-05-23T07:02:26;98018.41;;;20.02;56.16
15884;BME280;8040;50.254;10.960;2023-05-23T07:04:51;98035.16;;;19.93;55.52
15884;BME280;8040;50.254;10.960;2023-05-23T07:07:17;98045.69;;;19.88;55.46
15884;BME280;8040;50.254;10.960;2023-05-23T07:09:42;98041.63;;;19.82;55.69
15884;BME280;8040;50.254;10.960;2023-05-23T07:12:07;98051.97;;;19.88;55.25
15884;BME280;8040;50.254;10.960;2023-05-23T07:14:33;98055.66;;;19.96;54.23
15884;BME280;8040;50.254;10.960;2023-05-23T07:16:59;98052.91;;;19.96;53.35
15884;BME280;8040;50.254;10.960;2023-05-23T07:19:26;98057.75;;;20.02;53.26
15884;BME280;8040;50.254;10.960;2023-05-23T07:21:51;98066.53;;;20.08;52.73
15884;BME280;8040;50.254;10.960;2023-05-23T07:24:16;98066.44;;;20.04;52.48
15884;BME280;8040;50.254;10.960;2023-05-23T07:26:42;98063.56;;;19.97;52.50
15884;BME280;8040;50.254;10.960;2023-05-23T07:29:07;98062.81;;;20.00;53.05
15884;BME280;8040;50.254;10.960;2023-05-23T07:31:32;98067.19;;;20.01;53.05
15884;BME280;8040;50.254;10.960;2023-05-23T07:33:58;98084.00;;;19.96;52.04
15884;BME280;8040;50.254;10.960;2023-05-23T07:36:23;98081.97;;;19.93;51.96
15884;BME280;8040;50.254;10.960;2023-05-23T07:38:48;98085.69;;;19.82;51.77
15884;BME280;8040;50.254;10.960;2023-05-23T07:41:14;98087.13;;;19.76;51.88
15884;BME280;8040;50.254;10.960;2023-05-23T07:43:39;98078.88;;;19.76;51.92
15884;BME280;8040;50.254;10.960;2023-05-23T07:46:05;98090.97;;;19.71;51.92
15884;BME280;8040;50.254;10.960;2023-05-23T07:48:30;98084.66;;;19.71;51.52
15884;BME280;8040;50.254;10.960;2023-05-23T07:50:56;98083.22;;;19.77;51.62
15884;BME280;8040;50.254;10.960;2023-05-23T07:53:21;98078.56;;;19.81;51.37
15884;BME280;8040;50.254;10.960;2023-05-23T07:55:47;98077.31;;;19.97;52.12
15884;BME280;8040;50.254;10.960;2023-05-23T07:58:12;98081.72;;;20.02;51.37
15884;BME280;8040;50.254;10.960;2023-05-23T08:00:37;98086.88;;;20.03;51.21
15884;BME280;8040;50.254;10.960;2023-05-23T08:03:03;98077.44;;;20.04;51.38
15884;BME280;8040;50.254;10.960;2023-05-23T08:05:28;98090.81;;;20.02;51.85
15884;BME280;8040;50.254;10.960;2023-05-23T08:07:53;98080.50;;;19.99;52.10
15884;BME280;8040;50.254;10.960;2023-05-23T08:10:19;98094.78;;;19.86;52.31
15884;BME280;8040;50.254;10.960;2023-05-23T08:12:44;98081.00;;;19.86;52.76
15884;BME280;8040;50.254;10.960;2023-05-23T08:15:10;98092.75;;;19.83;52.54
15884;BME280;8040;50.254;10.960;2023-05-23T08:17:35;98099.38;;;19.78;52.67
15884;BME280;8040;50.254;10.960;2023-05-23T08:20:00;98101.53;;;19.69;52.71
15884;BME280;8040;50.254;10.960;2023-05-23T08:22:27;98108.94;;;19.65;53.07
15884;BME280;8040;50.254;10.960;2023-05-23T08:24:57;98110.31;;;19.56;53.46
15884;BME280;8040;50.254;10.960;2023-05-23T08:27:23;98122.34;;;19.32;53.92
15884;BME280;8040;50.254;10.960;2023-05-23T08:29:48;98113.59;;;19.27;54.59
15884;BME280;8040;50.254;10.960;2023-05-23T08:32:13;98124.84;;;19.22;54.88
15884;BME280;8040;50.254;10.960;2023-05-23T08:34:39;98110.09;;;19.30;54.87
15884;BME280;8040;50.254;10.960;2023-05-23T08:37:04;98103.22;;;19.39;54.67
15884;BME280;8040;50.254;10.960;2023-05-23T08:39:30;98114.31;;;19.43;54.43
15884;BME280;8040;50.254;10.960;2023-05-23T08:41:55;98118.56;;;19.56;54.52
15884;BME280;8040;50.254;10.960;2023-05-23T08:44:21;98116.03;;;19.66;54.49
15884;BME280;8040;50.254;10.960;2023-05-23T08:46:46;98117.41;;;19.76;53.36
15884;BME280;8040;50.254;10.960;2023-05-23T08:49:15;98121.66;;;19.92;53.85
15884;BME280;8040;50.254;10.960;2023-05-23T08:51:42;98121.81;;;19.99;53.23
15884;BME280;8040;50.254;10.960;2023-05-23T08:54:07;98121.38;;;19.97;52.16
15884;BME280;8040;50.254;10.960;2023-05-23T08:56:35;98123.59;;;19.92;52.37
15884;BME280;8040;50.254;10.960;2023-05-23T08:59:01;98116.25;;;19.77;52.54
15884;BME280;8040;50.254;10.960;2023-05-23T09:01:26;98134.00;;;19.79;53.05
15884;BME280;8040;50.254;10.960;2023-05-23T09:03:52;98134.28;;;19.74;52.77
15884;BME280;8040;50.254;10.960;2023-05-23T09:06:18;98130.94;;;19.65;52.74
15884;BME280;8040;50.254;10.960;2023-05-23T09:08:48;98134.56;;;19.69;52.68
15884;BME280;8040;50.254;10.960;2023-05-23T09:11:13;98138.03;;;19.66;52.96
15884;BME280;8040;50.254;10.960;2023-05-23T09:13:39;98138.59;;;19.56;52.87
15884;BME280;8040;50.254;10.960;2023-05-23T09:16:05;98144.38;;;19.51;53.08
15884;BME280;8040;50.254;10.960;2023-05-23T09:21:02;98140.34;;;19.64;53.28
15884;BME280;8040;50.254;10.960;2023-05-23T09:23:29;98140.06;;;19.69;53.17
15884;BME280;8040;50.254;10.960;2023-05-23T09:25:54;98137.84;;;19.75;53.36
15884;BME280;8040;50.254;10.960;2023-05-23T09:28:19;98133.91;;;19.76;52.47
15884;BME280;8040;50.254;10.960;2023-05-23T09:30:45;98133.72;;;19.84;52.28
15884;BME280;8040;50.254;10.960;2023-05-23T09:33:10;98133.19;;;19.79;51.28
15884;BME280;8040;50.254;10.960;2023-05-23T09:36:08;98133.16;;;19.60;51.70
15884;BME280;8040;50.254;10.960;2023-05-23T09:38:37;98140.66;;;19.59;51.87
15884;BME280;8040;50.254;10.960;2023-05-23T09:41:03;98142.94;;;19.57;52.08
15884;BME280;8040;50.254;10.960;2023-05-23T09:43:29;98137.50;;;19.61;52.21
15884;BME280;8040;50.254;10.960;2023-05-23T09:45:54;98142.38;;;19.67;52.29
15884;BME280;8040;50.254;10.960;2023-05-23T09:48:26;98150.63;;;19.67;52.02
15884;BME280;8040;50.254;10.960;2023-05-23T09:50:52;98147.47;;;19.65;51.75
15884;BME280;8040;50.254;10.960;2023-05-23T09:53:17;98146.50;;;19.58;51.83
15884;BME280;8040;50.254;10.960;2023-05-23T09:55:45;98155.09;;;19.56;51.96
15884;BME280;8040;50.254;10.960;2023-05-23T09:58:11;98147.19;;;19.55;51.79
15884;BME280;8040;50.254;10.960;2023-05-23T10:00:37;98150.41;;;19.57;52.32
15884;BME280;8040;50.254;10.960;2023-05-23T10:03:12;98153.38;;;19.48;52.07
15884;BME280;8040;50.254;10.960;2023-05-23T10:05:43;98157.56;;;19.42;52.47
15884;BME280;8040;50.254;10.960;2023-05-23T10:08:09;98153.28;;;19.45;52.30
15884;BME280;8040;50.254;10.960;2023-05-23T10:10:53;98151.69;;;19.44;52.26
15884;BME280;8040;50.254;10.960;2023-05-23T10:13:27;98152.72;;;19.55;52.26
15884;BME280;8040;50.254;10.960;2023-05-23T10:16:01;98160.06;;;19.66;52.26
15884;BME280;8040;50.254;10.960;2023-05-23T10:18:33;98158.91;;;19.67;52.02
15884;BME280;8040;50.254;10.960;2023-05-23T10:21:08;98160.34;;;19.61;52.13
15884;BME280;8040;50.254;10.960;2023-05-23T10:23:36;98160.41;;;19.65;52.68
15884;BME280;8040;50.254;10.960;2023-05-23T10:26:02;98159.91;;;19.59;52.58
15884;BME280;8040;50.254;10.960;2023-05-23T10:28:29;98165.22;;;19.52;53.04
15884;BME280;8040;50.254;10.960;2023-05-23T10:30:54;98157.91;;;19.41;53.39
15884;BME280;8040;50.254;10.960;2023-05-23T10:33:20;98159.34;;;19.35;53.78
15884;BME280;8040;50.254;10.960;2023-05-23T10:35:48;98166.69;;;19.31;53.85
15884;BME280;8040;50.254;10.960;2023-05-23T10:38:35;98159.41;;;19.38;54.26
15884;BME280;8040;50.254;10.960;2023-05-23T10:43:43;98165.16;;;19.49;54.20
15884;BME280;8040;50.254;10.960;2023-05-23T10:46:11;98160.88;;;19.51;53.87
15884;BME280;8040;50.254;10.960;2023-05-23T10:48:40;98159.53;;;19.61;53.24
15884;BME280;8040;50.254;10.960;2023-05-23T10:51:10;98159.28;;;19.50;53.15
15884;BME280;8040;50.254;10.960;2023-05-23T10:53:40;98151.78;;;19.47;53.40
15884;BME280;8040;50.254;10.960;2023-05-23T10:56:06;98160.09;;;19.51;53.59
15884;BME280;8040;50.254;10.960;2023-05-23T10:58:33;98157.44;;;19.54;53.18
15884;BME280;8040;50.254;10.960;2023-05-23T11:00:59;98165.84;;;19.61;53.27
15884;BME280;8040;50.254;10.960;2023-05-23T11:03:29;98154.63;;;19.70;53.37
15884;BME280;8040;50.254;10.960;2023-05-23T11:05:55;98158.69;;;19.76;52.59
15884;BME280;8040;50.254;10.960;2023-05-23T11:08:22;98155.06;;;19.72;53.30
15884;BME280;8040;50.254;10.960;2023-05-23T11:13:17;98152.91;;;20.19;52.44
15884;BME280;8040;50.254;10.960;2023-05-23T11:15:42;98156.28;;;20.50;52.03
15884;BME280;8040;50.254;10.960;2023-05-23T11:18:10;98152.91;;;20.83;50.43
15884;BME280;8040;50.254;10.960;2023-05-23T11:20:43;98154.03;;;21.01;49.81
15884;BME280;8040;50.254;10.960;2023-05-23T11:23:09;98151.41;;;21.08;49.71
15884;BME280;8040;50.254;10.960;2023-05-23T11:25:43;98153.72;;;21.06;49.24
15884;BME280;8040;50.254;10.960;2023-05-23T11:28:08;98163.00;;;20.94;48.98
15884;BME280;8040;50.254;10.960;2023-05-23T11:30:34;98154.75;;;20.75;48.96
15884;BME280;8040;50.254;10.960;2023-05-23T11:33:10;98159.00;;;20.69;49.85
15884;BME280;8040;50.254;10.960;2023-05-23T11:35:41;98159.66;;;20.63;49.95
15884;BME280;8040;50.254;10.960;2023-05-23T11:38:07;98165.03;;;20.56;50.34
15884;BME280;8040;50.254;10.960;2023-05-23T11:40:34;98168.84;;;20.48;50.69
15884;BME280;8040;50.254;10.960;2023-05-23T11:43:00;98177.81;;;20.45;51.30
15884;BME280;8040;50.254;10.960;2023-05-23T11:45:26;98167.41;;;20.16;52.11
15884;BME280;8040;50.254;10.960;2023-05-23T11:47:52;98161.50;;;19.98;53.05
15884;BME280;8040;50.254;10.960;2023-05-23T11:50:17;98167.97;;;19.87;53.09
15884;BME280;8040;50.254;10.960;2023-05-23T11:52:45;98172.81;;;19.74;53.64
15884;BME280;8040;50.254;10.960;2023-05-23T11:58:19;98181.53;;;19.61;54.10
15884;BME280;8040;50.254;10.960;2023-05-23T12:00:45;98175.75;;;19.66;54.25
15884;BME280;8040;50.254;10.960;2023-05-23T12:03:10;98176.72;;;19.73;54.15
15884;BME280;8040;50.254;10.960;2023-05-23T12:05:35;98175.41;;;19.86;54.25
15884;BME280;8040;50.254;10.960;2023-05-23T12:08:01;98178.91;;;20.02;53.82
15884;BME280;8040;50.254;10.960;2023-05-23T12:10:26;98172.13;;;20.15;52.93
15884;BME280;8040;50.254;10.960;2023-05-23T12:12:52;98177.50;;;20.27;52.39
15884;BME280;8040;50.254;10.960;2023-05-23T12:15:17;98178.34;;;20.31;52.26
15884;BME280;8040;50.254;10.960;2023-05-23T12:17:44;98189.28;;;20.47;52.21
15884;BME280;8040;50.254;10.960;2023-05-23T12:20:13;98180.03;;;20.58;51.71
15884;BME280;8040;50.254;10.960;2023-05-23T12:22:38;98172.13;;;20.57;51.50
15884;BME280;8040;50.254;10.960;2023-05-23T12:25:07;98177.06;;;20.67;51.81
15884;BME280;8040;50.254;10.960;2023-05-23T12:27:33;98182.00;;;20.58;50.84
15884;BME280;8040;50.254;10.960;2023-05-23T12:32:41;98185.56;;;20.58;51.25
15884;BME280;8040;50.254;10.960;2023-05-23T12:35:10;98193.59;;;20.67;51.59
15884;BME280;8040;50.254;10.960;2023-05-23T12:37:40;98197.59;;;20.69;51.17
15884;BME280;8040;50.254;10.960;2023-05-23T12:40:11;98193.75;;;20.55;50.77
15884;BME280;8040;50.254;10.960;2023-05-23T12:43:10;98201.22;;;20.54;51.16
15884;BME280;8040;50.254;10.960;2023-05-23T12:45:30;98199.63;;;20.53;51.71
15884;BME280;8040;50.254;10.960;2023-05-23T12:47:55;98199.63;;;20.53;51.73
15884;BME280;8040;50.254;10.960;2023-05-23T12:50:21;98200.38;;;20.50;51.88
15884;BME280;8040;50.254;10.960;2023-05-23T12:52:46;98201.78;;;20.41;52.27
15884;BME280;8040;50.254;10.960;2023-05-23T12:55:11;98203.28;;;20.38;52.73
15884;BME280;8040;50.254;10.960;2023-05-23T12:57:37;98205.72;;;20.43;52.51
15884;BME280;8040;50.254;10.960;2023-05-23T13:20:55;98215.56;;;19.87;54.83
15884;BME280;8040;50.254;10.960;2023-05-23T13:23:20;98220.34;;;19.90;54.95
15884;BME280;8040;50.254;10.960;2023-05-23T13:25:46;98225.13;;;19.93;54.85
15884;BME280;8040;50.254;10.960;2023-05-23T13:28:11;98210.84;;;19.88;54.46
15884;BME280;8040;50.254;10.960;2023-05-23T13:30:36;98215.44;;;19.99;55.33
15884;BME280;8040;50.254;10.960;2023-05-23T13:33:02;98219.75;;;20.00;54.47
15884;BME280;8040;50.254;10.960;2023-05-23T13:35:27;98229.03;;;19.92;54.19
15884;BME280;8040;50.254;10.960;2023-05-23T13:37:53;98225.38;;;19.69;54.67
15884;BME280;8040;50.254;10.960;2023-05-23T13:40:20;98235.03;;;19.79;55.02
15884;BME280;8040;50.254;10.960;2023-05-23T13:42:49;98245.56;;;19.92;54.68
15884;BME280;8040;50.254;10.960;2023-05-23T13:45:17;98229.78;;;19.89;54.29
15884;BME280;8040;50.254;10.960;2023-05-23T13:47:43;98232.16;;;19.91;54.56
15884;BME280;8040;50.254;10.960;2023-05-23T13:50:08;98241.88;;;19.69;54.82
15884;BME280;8040;50.254;10.960;2023-05-23T13:52:34;98245.97;;;19.75;55.48
15884;BME280;8040;50.254;10.960;2023-05-23T13:55:00;98256.53;;;19.73;54.61